createdAt,value
2017-12-17T00:01:24.953Z,6.37
2017-12-17T00:03:01.794Z,6.46
2017-12-17T00:04:39.039Z,6.60
2017-12-17T00:06:24.256Z,6.68
2017-12-17T00:08:00.756Z,6.62
2017-12-17T00:09:37.646Z,6.65
2017-12-17T00:11:14.061Z,6.64
2017-12-17T00:12:51.767Z,6.69
2017-12-17T00:14:28.766Z,6.67
2017-12-17T00:16:05.916Z,6.41
2017-12-17T00:17:43.296Z,6.40
2017-12-17T00:19:19.578Z,6.38
2017-12-17T00:20:56.638Z,6.37
2017-12-17T00:22:33.224Z,6.48
2017-12-17T00:24:09.770Z,6.56
2017-12-17T00:25:47.048Z,6.65
2017-12-17T00:27:23.381Z,6.79
2017-12-17T00:28:59.867Z,7.00
2017-12-17T00:30:36.074Z,7.08
2017-12-17T00:32:16.890Z,7.09
2017-12-17T00:33:53.473Z,7.04
2017-12-17T00:35:30.208Z,6.92
2017-12-17T00:37:07.144Z,6.74
2017-12-17T00:38:44.266Z,6.50
2017-12-17T00:40:20.298Z,6.53
2017-12-17T00:41:56.808Z,6.46
2017-12-17T00:43:33.120Z,6.28
2017-12-17T00:45:09.432Z,5.92
2017-12-17T00:46:46.672Z,5.91
2017-12-17T00:48:23.538Z,6.00
2017-12-17T00:49:59.632Z,6.12
2017-12-17T00:51:36.775Z,6.08
2017-12-17T00:53:12.917Z,6.10
2017-12-17T00:54:49.357Z,6.10
2017-12-17T00:56:29.025Z,6.05
2017-12-17T01:00:59.682Z,6.11
2017-12-17T01:02:35.854Z,6.20
2017-12-17T01:04:12.169Z,6.21
2017-12-17T01:05:49.398Z,6.11
2017-12-17T01:07:26.503Z,6.04
2017-12-17T01:09:03.918Z,6.09
2017-12-17T01:10:40.046Z,5.98
2017-12-17T01:12:16.625Z,6.04
2017-12-17T01:13:53.372Z,6.10
2017-12-17T01:15:31.588Z,6.01
2017-12-17T01:17:07.938Z,6.04
2017-12-17T01:18:45.186Z,6.12
2017-12-17T01:20:21.296Z,6.14
2017-12-17T01:21:57.262Z,6.17
2017-12-17T01:23:36.243Z,6.38
2017-12-17T01:25:12.757Z,6.60
2017-12-17T01:26:49.612Z,6.73
2017-12-17T01:28:25.565Z,6.59
2017-12-17T01:30:02.644Z,6.56
2017-12-17T01:31:39.456Z,6.35
2017-12-17T01:33:16.595Z,6.20
2017-12-17T01:34:52.524Z,6.10
2017-12-17T01:36:28.541Z,6.16
2017-12-17T01:38:05.872Z,6.14
2017-12-17T01:39:41.796Z,6.18
2017-12-17T01:41:18.149Z,6.10
2017-12-17T01:42:54.606Z,6.16
2017-12-17T01:44:31.190Z,6.28
2017-12-17T01:46:07.503Z,6.27
2017-12-17T01:47:43.798Z,6.06
2017-12-17T01:49:21.020Z,6.24
2017-12-17T01:50:57.114Z,6.33
2017-12-17T01:52:33.386Z,6.44
2017-12-17T01:54:09.552Z,6.41
2017-12-17T01:55:45.837Z,6.34
2017-12-17T01:57:24.321Z,6.20
2017-12-17T01:59:01.358Z,5.98
2017-12-17T02:00:37.578Z,5.98
2017-12-17T02:02:14.318Z,6.03
2017-12-17T02:03:50.953Z,6.05
2017-12-17T02:05:28.552Z,6.04
2017-12-17T02:07:05.127Z,6.10
2017-12-17T02:08:41.523Z,6.20
2017-12-17T02:10:18.755Z,6.31
2017-12-17T02:11:55.276Z,6.22
2017-12-17T02:13:31.503Z,6.27
2017-12-17T02:15:07.937Z,6.43
2017-12-17T02:16:44.680Z,6.31
2017-12-17T02:18:20.834Z,6.33
2017-12-17T02:19:57.952Z,6.35
2017-12-17T02:21:35.339Z,6.24
2017-12-17T02:23:18.083Z,6.36
2017-12-17T02:24:54.241Z,6.25
2017-12-17T02:26:30.800Z,6.28
2017-12-17T02:28:07.814Z,6.22
2017-12-17T02:29:45.326Z,6.10
2017-12-17T02:31:23.060Z,5.98
2017-12-17T02:33:00.011Z,5.96
2017-12-17T02:34:37.270Z,5.83
2017-12-17T02:36:13.445Z,5.78
2017-12-17T02:37:49.956Z,5.91
2017-12-17T02:39:27.531Z,6.10
2017-12-17T02:41:03.946Z,6.37
2017-12-17T02:42:40.758Z,6.28
2017-12-17T02:44:16.990Z,6.10
2017-12-17T02:45:53.648Z,5.93
2017-12-17T02:47:29.768Z,5.73
2017-12-17T02:49:07.475Z,5.72
2017-12-17T02:50:44.127Z,5.77
2017-12-17T02:52:21.035Z,5.78
2017-12-17T02:53:57.254Z,5.89
2017-12-17T02:55:34.169Z,5.93
2017-12-17T02:57:11.001Z,5.90
2017-12-17T02:58:47.154Z,5.94
2017-12-17T03:00:27.289Z,6.08
2017-12-17T03:02:03.479Z,6.25
2017-12-17T03:03:40.281Z,6.31
2017-12-17T03:05:17.219Z,6.55
2017-12-17T03:06:53.358Z,6.76
2017-12-17T03:08:35.803Z,6.90
2017-12-17T03:10:13.077Z,6.88
2017-12-17T03:11:49.345Z,6.83
2017-12-17T03:13:25.564Z,6.87
2017-12-17T03:15:02.165Z,6.92
2017-12-17T03:16:38.639Z,6.89
2017-12-17T03:18:15.778Z,6.85
2017-12-17T03:19:52.007Z,6.95
2017-12-17T03:21:29.190Z,6.87
2017-12-17T03:23:05.485Z,6.86
2017-12-17T03:24:41.881Z,6.82
2017-12-17T03:26:18.288Z,6.78
2017-12-17T03:27:55.794Z,6.88
2017-12-17T03:29:31.939Z,7.04
2017-12-17T03:31:08.809Z,7.26
2017-12-17T03:32:45.921Z,7.28
2017-12-17T03:34:22.647Z,7.13
2017-12-17T03:35:59.743Z,7.16
2017-12-17T03:37:36.727Z,7.21
2017-12-17T03:39:16.328Z,7.15
2017-12-17T03:40:53.067Z,7.15
2017-12-17T03:42:29.302Z,6.96
2017-12-17T03:44:06.578Z,6.90
2017-12-17T03:45:42.871Z,6.86
2017-12-17T03:47:19.487Z,6.73
2017-12-17T03:48:55.885Z,6.81
2017-12-17T03:50:32.945Z,6.73
2017-12-17T03:52:09.106Z,6.54
2017-12-17T03:53:45.767Z,6.48
2017-12-17T03:55:26.753Z,6.57
2017-12-17T03:57:03.094Z,6.68
2017-12-17T03:58:40.097Z,6.64
2017-12-17T04:00:22.555Z,6.40
2017-12-17T04:02:02.809Z,6.20
2017-12-17T04:03:39.062Z,5.95
2017-12-17T04:05:15.993Z,5.96
2017-12-17T04:06:52.134Z,5.84
2017-12-17T04:08:28.250Z,5.82
2017-12-17T04:10:05.269Z,5.70
2017-12-17T04:11:41.476Z,5.42
2017-12-17T04:13:18.108Z,5.34
2017-12-17T04:14:54.467Z,5.21
2017-12-17T04:16:30.698Z,5.23
2017-12-17T04:18:07.480Z,5.32
2017-12-17T04:19:44.666Z,5.42
2017-12-17T04:21:20.768Z,5.57
2017-12-17T04:22:56.787Z,5.63
2017-12-17T04:24:32.930Z,5.57
2017-12-17T04:26:09.630Z,5.61
2017-12-17T04:27:45.750Z,5.75
2017-12-17T04:29:21.764Z,5.61
2017-12-17T04:30:57.863Z,5.90
2017-12-17T04:32:35.066Z,6.08
2017-12-17T04:34:11.176Z,5.95
2017-12-17T04:35:49.518Z,5.69
2017-12-17T04:37:26.218Z,5.86
2017-12-17T04:39:02.775Z,5.84
2017-12-17T04:40:39.269Z,5.77
2017-12-17T04:42:15.483Z,5.52
2017-12-17T04:43:51.460Z,5.50
2017-12-17T04:45:31.626Z,5.49
2017-12-17T04:47:08.459Z,5.50
2017-12-17T04:48:46.132Z,5.11
2017-12-17T04:50:22.174Z,5.18
2017-12-17T04:51:59.078Z,5.24
2017-12-17T04:53:35.182Z,5.30
2017-12-17T04:55:11.408Z,5.20
2017-12-17T04:56:47.584Z,5.22
2017-12-17T04:58:24.840Z,5.45
2017-12-17T05:00:00.926Z,5.50
2017-12-17T05:01:37.139Z,5.55
2017-12-17T05:03:13.197Z,5.64
2017-12-17T05:04:49.700Z,5.63
2017-12-17T05:06:26.525Z,5.55
2017-12-17T05:08:02.784Z,5.47
2017-12-17T05:09:39.215Z,5.44
2017-12-17T05:11:16.470Z,5.40
2017-12-17T05:12:52.570Z,5.56
2017-12-17T05:14:29.374Z,5.61
2017-12-17T05:16:11.995Z,5.59
2017-12-17T05:17:48.060Z,5.52
2017-12-17T05:19:24.114Z,5.53
2017-12-17T05:21:00.077Z,5.52
2017-12-17T05:22:36.591Z,5.52
2017-12-17T05:24:13.985Z,5.66
2017-12-17T05:25:50.446Z,5.70
2017-12-17T05:27:27.366Z,5.90
2017-12-17T05:29:03.527Z,6.07
2017-12-17T05:30:40.133Z,6.15
2017-12-17T05:32:16.193Z,6.33
2017-12-17T05:33:53.112Z,6.38
2017-12-17T05:37:09.170Z,6.61
2017-12-17T05:38:45.704Z,6.56
2017-12-17T05:40:22.179Z,6.41
2017-12-17T05:41:58.714Z,6.34
2017-12-17T05:43:35.274Z,6.30
2017-12-17T05:45:11.333Z,6.26
2017-12-17T05:46:47.796Z,6.32
2017-12-17T05:48:26.638Z,6.12
2017-12-17T05:50:03.064Z,5.80
2017-12-17T05:51:39.928Z,5.54
2017-12-17T05:53:17.898Z,5.36
2017-12-17T05:54:53.971Z,5.19
2017-12-17T05:56:30.793Z,5.04
2017-12-17T05:58:06.812Z,5.02
2017-12-17T05:59:43.735Z,5.16
2017-12-17T06:01:19.855Z,5.31
2017-12-17T06:02:57.078Z,5.25
2017-12-17T06:04:33.159Z,5.25
2017-12-17T06:06:13.473Z,5.33
2017-12-17T06:07:49.737Z,5.41
2017-12-17T06:09:26.411Z,5.41
2017-12-17T06:11:02.448Z,5.49
2017-12-17T06:12:38.565Z,5.57
2017-12-17T06:14:14.615Z,5.60
2017-12-17T06:15:51.213Z,5.63
2017-12-17T06:19:09.216Z,5.70
2017-12-17T06:20:45.346Z,5.74
2017-12-17T06:22:21.904Z,5.93
2017-12-17T06:23:58.069Z,6.01
2017-12-17T06:25:34.217Z,6.01
2017-12-17T06:27:11.030Z,5.78
2017-12-17T06:30:24.841Z,5.21
2017-12-17T06:32:01.676Z,5.15
2017-12-17T06:33:43.542Z,5.26
2017-12-17T06:35:20.175Z,5.39
2017-12-17T06:36:56.248Z,5.67
2017-12-17T06:38:32.269Z,5.79
2017-12-17T06:40:08.559Z,5.84
2017-12-17T06:41:46.251Z,5.98
2017-12-17T06:43:22.642Z,6.04
2017-12-17T06:44:58.695Z,6.11
2017-12-17T06:46:35.638Z,6.01
2017-12-17T06:48:18.772Z,5.95
2017-12-17T06:49:54.817Z,5.94
2017-12-17T06:51:31.203Z,5.92
2017-12-17T06:53:08.096Z,5.93
2017-12-17T06:54:46.237Z,5.94
2017-12-17T06:56:23.152Z,6.00
2017-12-17T06:57:59.227Z,6.09
2017-12-17T06:59:36.153Z,6.24
2017-12-17T07:01:13.013Z,6.01
2017-12-17T07:02:49.093Z,5.82
2017-12-17T07:04:25.219Z,5.87
2017-12-17T07:06:01.215Z,5.92
2017-12-17T07:07:37.643Z,5.93
2017-12-17T07:09:14.214Z,5.89
2017-12-17T07:10:50.682Z,5.88
2017-12-17T07:12:26.688Z,5.97
2017-12-17T07:14:03.118Z,6.02
2017-12-17T07:15:39.611Z,6.05
2017-12-17T07:17:15.860Z,5.97
2017-12-17T07:18:52.086Z,5.98
2017-12-17T07:20:28.583Z,6.02
2017-12-17T07:22:04.725Z,5.91
2017-12-17T07:23:41.242Z,5.70
2017-12-17T07:25:18.129Z,5.93
2017-12-17T07:26:54.861Z,6.11
2017-12-17T07:28:30.942Z,6.20
2017-12-17T07:30:07.914Z,6.16
2017-12-17T07:31:44.448Z,6.11
2017-12-17T07:33:21.250Z,6.08
2017-12-17T07:34:58.156Z,6.00
2017-12-17T07:36:34.228Z,6.04
2017-12-17T07:38:10.295Z,6.03
2017-12-17T07:39:46.417Z,6.01
2017-12-17T07:41:22.538Z,5.83
2017-12-17T07:42:58.651Z,5.80
2017-12-17T07:44:34.793Z,5.82
2017-12-17T07:46:11.628Z,5.67
2017-12-17T07:47:47.846Z,5.74
2017-12-17T07:49:24.093Z,5.78
2017-12-17T07:51:00.218Z,5.79
2017-12-17T07:52:36.853Z,5.70
2017-12-17T07:54:12.952Z,5.70
2017-12-17T07:55:49.083Z,5.70
2017-12-17T07:57:25.449Z,5.81
2017-12-17T07:59:01.793Z,5.84
2017-12-17T08:00:38.143Z,5.96
2017-12-17T08:02:14.283Z,5.94
2017-12-17T08:03:50.264Z,5.84
2017-12-17T08:05:26.745Z,5.77
2017-12-17T08:07:03.140Z,5.79
2017-12-17T08:08:39.282Z,5.91
2017-12-17T08:10:16.223Z,6.01
2017-12-17T08:11:52.835Z,6.05
2017-12-17T08:13:28.954Z,6.03
2017-12-17T08:15:05.032Z,6.00
2017-12-17T08:16:42.133Z,6.02
2017-12-17T08:18:18.652Z,6.03
2017-12-17T08:19:54.855Z,6.04
2017-12-17T08:21:32.256Z,5.96
2017-12-17T08:23:08.646Z,5.94
2017-12-17T08:24:46.072Z,6.14
2017-12-17T08:26:23.052Z,6.12
2017-12-17T08:27:59.861Z,6.07
2017-12-17T08:29:36.366Z,6.06
2017-12-17T08:31:20.749Z,5.92
2017-12-17T08:32:56.852Z,5.75
2017-12-17T08:34:32.992Z,5.71
2017-12-17T08:36:09.085Z,5.72
2017-12-17T08:37:45.603Z,5.75
2017-12-17T08:39:22.708Z,5.69
2017-12-17T08:40:59.440Z,5.75
2017-12-17T08:42:35.655Z,5.73
2017-12-17T08:44:12.105Z,5.84
2017-12-17T08:45:48.599Z,5.96
2017-12-17T08:47:24.859Z,6.00
2017-12-17T08:49:01.135Z,5.97
2017-12-17T08:50:37.754Z,5.79
2017-12-17T08:52:14.221Z,5.79
2017-12-17T08:53:50.311Z,5.87
2017-12-17T08:55:26.400Z,5.98
2017-12-17T08:57:03.289Z,5.99
2017-12-17T08:58:39.748Z,5.90
2017-12-17T09:00:20.331Z,6.03
2017-12-17T09:01:57.636Z,6.22
2017-12-17T09:03:34.272Z,6.12
2017-12-17T09:05:14.043Z,5.88
2017-12-17T09:06:50.094Z,5.84
2017-12-17T09:08:33.180Z,5.97
2017-12-17T09:10:10.467Z,6.05
2017-12-17T09:11:48.003Z,6.03
2017-12-17T09:13:24.145Z,6.22
2017-12-17T09:15:00.247Z,6.37
2017-12-17T09:16:36.996Z,6.50
2017-12-17T09:18:13.748Z,6.59
2017-12-17T09:19:49.934Z,6.61
2017-12-17T09:21:26.180Z,6.60
2017-12-17T09:23:02.747Z,6.61
2017-12-17T09:24:39.097Z,6.64
2017-12-17T09:26:16.130Z,6.36
2017-12-17T09:27:55.542Z,6.17
2017-12-17T09:29:32.229Z,5.95
2017-12-17T09:31:08.925Z,5.76
2017-12-17T09:32:46.568Z,5.81
2017-12-17T09:34:23.649Z,5.78
2017-12-17T09:36:00.309Z,5.68
2017-12-17T09:37:36.703Z,5.53
2017-12-17T09:39:19.574Z,5.55
2017-12-17T09:40:56.649Z,5.60
2017-12-17T09:42:33.578Z,5.52
2017-12-17T09:44:19.828Z,5.61
2017-12-17T09:45:56.080Z,5.69
2017-12-17T09:47:32.366Z,5.79
2017-12-17T09:49:09.308Z,6.06
2017-12-17T09:50:46.556Z,6.35
2017-12-17T09:52:22.969Z,6.30
2017-12-17T09:53:59.202Z,6.38
2017-12-17T09:55:36.263Z,6.47
2017-12-17T09:57:12.738Z,6.45
2017-12-17T09:58:49.300Z,6.42
2017-12-17T10:00:32.879Z,6.37
2017-12-17T10:02:09.457Z,6.32
2017-12-17T10:03:46.401Z,6.02
2017-12-17T10:05:22.587Z,5.81
2017-12-17T10:06:59.032Z,5.71
2017-12-17T10:08:35.921Z,5.87
2017-12-17T10:10:12.287Z,5.97
2017-12-17T10:11:48.408Z,6.40
2017-12-17T10:13:24.806Z,6.51
2017-12-17T10:15:01.371Z,6.79
2017-12-17T10:16:38.225Z,6.96
2017-12-17T10:18:15.003Z,7.10
2017-12-17T10:19:51.420Z,7.17
2017-12-17T10:21:27.958Z,7.07
2017-12-17T10:23:04.278Z,7.15
2017-12-17T10:24:40.647Z,6.98
2017-12-17T10:26:16.951Z,6.92
2017-12-17T10:27:53.748Z,6.90
2017-12-17T10:29:30.262Z,6.87
2017-12-17T10:31:06.427Z,6.98
2017-12-17T10:32:43.107Z,7.19
2017-12-17T10:34:19.803Z,7.37
2017-12-17T10:35:56.019Z,7.23
2017-12-17T10:37:32.388Z,6.99
2017-12-17T10:39:08.612Z,6.75
2017-12-17T10:40:46.189Z,6.79
2017-12-17T10:42:22.463Z,6.66
2017-12-17T10:43:58.969Z,6.31
2017-12-17T10:45:35.910Z,6.05
2017-12-17T10:47:13.012Z,6.10
2017-12-17T10:48:50.302Z,6.12
2017-12-17T10:50:26.928Z,6.25
2017-12-17T10:52:03.835Z,6.23
2017-12-17T10:53:40.631Z,6.20
2017-12-17T10:55:17.770Z,6.07
2017-12-17T10:56:55.412Z,5.89
2017-12-17T10:58:31.714Z,5.83
2017-12-17T11:00:08.600Z,5.79
2017-12-17T11:01:51.103Z,5.71
2017-12-17T11:03:27.415Z,5.58
2017-12-17T11:05:04.426Z,5.62
2017-12-17T11:06:41.479Z,5.66
2017-12-17T11:08:23.392Z,5.75
2017-12-17T11:10:00.249Z,5.87
2017-12-17T11:11:36.824Z,6.04
2017-12-17T11:13:12.955Z,6.08
2017-12-17T11:14:49.334Z,6.27
2017-12-17T11:16:26.597Z,6.33
2017-12-17T11:18:04.291Z,6.47
2017-12-17T11:19:40.739Z,6.84
2017-12-17T11:21:16.920Z,7.03
2017-12-17T11:22:53.755Z,7.19
2017-12-17T11:24:30.569Z,7.34
2017-12-17T11:26:20.105Z,7.25
2017-12-17T11:27:56.511Z,7.38
2017-12-17T11:29:33.097Z,7.33
2017-12-17T11:31:12.159Z,7.18
2017-12-17T11:32:48.765Z,7.33
2017-12-17T11:34:25.305Z,7.38
2017-12-17T11:36:01.803Z,7.19
2017-12-17T11:37:38.792Z,7.32
2017-12-17T11:39:20.855Z,7.31
2017-12-17T11:40:57.201Z,7.19
2017-12-17T11:42:33.908Z,7.18
2017-12-17T11:44:10.568Z,7.23
2017-12-17T11:45:47.587Z,7.16
2017-12-17T11:47:24.205Z,7.24
2017-12-17T11:49:00.675Z,7.16
2017-12-17T11:50:37.897Z,7.05
2017-12-17T11:52:15.040Z,6.97
2017-12-17T11:53:51.454Z,6.81
2017-12-17T11:55:33.549Z,6.76
2017-12-17T11:57:10.406Z,6.66
2017-12-17T11:58:46.808Z,6.64
2017-12-17T12:00:28.727Z,6.60
2017-12-17T12:02:05.633Z,6.50
2017-12-17T12:03:42.421Z,6.23
2017-12-17T12:05:19.003Z,5.92
2017-12-17T12:06:55.457Z,5.79
2017-12-17T12:08:32.109Z,5.75
2017-12-17T12:10:09.136Z,5.91
2017-12-17T12:11:46.034Z,6.13
2017-12-17T12:13:22.724Z,6.15
2017-12-17T12:14:59.094Z,6.31
2017-12-17T12:16:35.975Z,6.61
2017-12-17T12:18:20.711Z,6.56
2017-12-17T12:19:57.196Z,6.67
2017-12-17T12:21:33.759Z,6.78
2017-12-17T12:23:11.257Z,6.92
2017-12-17T12:24:49.626Z,6.84
2017-12-17T12:26:28.288Z,6.70
2017-12-17T12:28:05.653Z,6.88
2017-12-17T12:29:42.553Z,7.02
2017-12-17T12:31:25.264Z,6.97
2017-12-17T12:33:02.159Z,6.98
2017-12-17T12:34:39.984Z,7.06
2017-12-17T12:36:17.289Z,7.10
2017-12-17T12:37:53.937Z,7.16
2017-12-17T12:39:31.137Z,7.12
2017-12-17T12:41:07.859Z,7.13
2017-12-17T12:42:47.446Z,6.94
2017-12-17T12:44:24.149Z,6.83
2017-12-17T12:46:00.435Z,6.82
2017-12-17T12:47:37.844Z,6.74
2017-12-17T12:49:15.051Z,6.80
2017-12-17T12:50:52.203Z,6.91
2017-12-17T12:52:29.680Z,6.96
2017-12-17T12:54:07.309Z,7.04
2017-12-17T12:55:47.233Z,6.96
2017-12-17T12:57:24.360Z,6.74
2017-12-17T12:59:01.974Z,6.92
2017-12-17T13:00:41.388Z,6.76
2017-12-17T13:02:19.854Z,6.67
2017-12-17T13:03:59.716Z,6.73
2017-12-17T13:05:36.942Z,6.83
2017-12-17T13:07:15.118Z,6.69
2017-12-17T13:08:53.465Z,6.76
2017-12-17T13:10:31.370Z,6.89
2017-12-17T13:12:08.568Z,7.05
2017-12-17T13:13:47.700Z,6.96
2017-12-17T13:15:27.972Z,6.89
2017-12-17T13:17:06.120Z,6.80
2017-12-17T13:18:42.685Z,6.53
2017-12-17T13:20:20.056Z,6.28
2017-12-17T13:22:00.322Z,6.23
2017-12-17T13:23:38.267Z,6.22
2017-12-17T13:25:19.053Z,6.25
2017-12-17T13:26:57.900Z,6.31
2017-12-17T13:28:35.884Z,6.31
2017-12-17T13:30:14.941Z,6.33
2017-12-17T13:31:55.142Z,6.39
2017-12-17T13:33:32.884Z,6.41
2017-12-17T13:35:11.091Z,6.63
2017-12-17T13:36:48.403Z,6.75
2017-12-17T13:38:25.784Z,6.84
2017-12-17T13:40:03.713Z,6.76
2017-12-17T13:41:46.730Z,6.69
2017-12-17T13:43:23.925Z,6.78
2017-12-17T13:45:01.083Z,6.82
2017-12-17T13:46:38.416Z,6.80
2017-12-17T13:48:16.570Z,6.65
2017-12-17T13:49:53.418Z,6.49
2017-12-17T13:51:32.159Z,6.58
2017-12-17T13:53:17.591Z,6.59
2017-12-17T13:54:56.418Z,6.52
2017-12-17T13:58:25.538Z,6.60
2017-12-17T14:00:04.649Z,6.63
2017-12-17T14:01:44.130Z,6.51
2017-12-17T14:03:25.230Z,6.47
2017-12-17T14:05:03.948Z,6.53
2017-12-17T14:06:44.269Z,6.68
2017-12-17T14:08:24.435Z,6.52
2017-12-17T14:10:03.807Z,6.31
2017-12-17T14:11:42.502Z,6.41
2017-12-17T14:13:21.087Z,6.56
2017-12-17T14:14:59.900Z,6.76
2017-12-17T14:16:39.932Z,6.90
2017-12-17T14:18:18.428Z,7.10
2017-12-17T14:19:57.063Z,7.06
2017-12-17T14:21:34.325Z,7.10
2017-12-17T14:23:11.316Z,7.11
2017-12-17T14:24:52.700Z,7.26
2017-12-17T14:26:34.443Z,7.35
2017-12-17T14:28:12.845Z,7.39
2017-12-17T14:29:50.292Z,7.45
2017-12-17T14:33:20.542Z,7.35
2017-12-17T14:34:59.210Z,7.39
2017-12-17T14:36:37.716Z,7.51
2017-12-17T14:38:18.523Z,7.57
2017-12-17T14:39:58.885Z,7.51
2017-12-17T14:41:41.854Z,7.71
2017-12-17T14:43:22.337Z,7.96
2017-12-17T14:45:02.196Z,8.05
2017-12-17T14:46:41.706Z,8.13
2017-12-17T14:50:15.080Z,7.77
2017-12-17T14:51:52.770Z,7.80
2017-12-17T14:53:32.310Z,7.71
2017-12-17T14:55:12.262Z,7.51
2017-12-17T14:56:52.375Z,7.34
2017-12-17T14:58:31.486Z,7.62
2017-12-17T15:00:12.485Z,7.66
2017-12-17T15:01:52.223Z,7.96
2017-12-17T15:03:32.284Z,8.05
2017-12-17T15:05:19.835Z,8.08
2017-12-17T15:06:59.882Z,8.04
2017-12-17T15:08:38.254Z,7.94
2017-12-17T15:10:19.312Z,7.84
2017-12-17T15:12:00.860Z,7.60
2017-12-17T15:13:40.380Z,7.50
2017-12-17T15:15:20.902Z,7.75
2017-12-17T15:16:59.486Z,7.78
2017-12-17T15:18:40.149Z,7.57
2017-12-17T15:20:20.624Z,7.50
2017-12-17T15:22:00.012Z,7.44
2017-12-17T15:23:38.694Z,7.48
2017-12-17T15:25:19.144Z,7.45
2017-12-17T15:26:57.152Z,7.26
2017-12-17T15:28:39.086Z,6.78
2017-12-17T15:30:21.237Z,6.81
2017-12-17T15:32:15.716Z,7.19
2017-12-17T15:33:56.974Z,7.30
2017-12-17T15:35:37.336Z,7.50
2017-12-17T15:37:16.419Z,7.63
2017-12-17T15:38:55.656Z,7.65
2017-12-17T15:40:35.135Z,7.64
2017-12-17T15:42:13.009Z,7.86
2017-12-17T15:43:51.027Z,7.77
2017-12-17T15:45:32.031Z,7.83
2017-12-17T15:47:10.456Z,7.97
2017-12-17T15:48:49.522Z,7.98
2017-12-17T15:50:28.446Z,7.83
2017-12-17T15:52:07.563Z,8.10
2017-12-17T15:55:17.182Z,8.57
2017-12-17T15:56:56.220Z,8.52
2017-12-17T15:58:37.005Z,8.32
2017-12-17T16:00:22.040Z,8.48
2017-12-17T16:02:01.492Z,8.38
2017-12-17T16:03:40.044Z,8.22
2017-12-17T16:05:22.258Z,8.14
2017-12-17T16:07:03.559Z,8.07
2017-12-17T16:08:43.070Z,7.86
2017-12-17T16:10:23.411Z,8.12
2017-12-17T16:12:03.631Z,8.16
2017-12-17T16:15:33.713Z,8.33
2017-12-17T16:17:13.721Z,8.19
2017-12-17T16:18:54.310Z,8.44
2017-12-17T16:20:32.839Z,8.53
2017-12-17T16:22:11.666Z,8.40
2017-12-17T16:23:50.821Z,8.37
2017-12-17T16:25:35.153Z,8.29
2017-12-17T16:27:13.905Z,8.28
2017-12-17T16:28:53.246Z,8.28
2017-12-17T16:30:34.369Z,8.35
2017-12-17T16:32:14.455Z,8.44
2017-12-17T16:33:55.766Z,8.55
2017-12-17T16:35:33.953Z,8.31
2017-12-17T16:37:13.458Z,8.40
2017-12-17T16:38:52.126Z,8.49
2017-12-17T16:40:33.988Z,8.41
2017-12-17T16:42:13.107Z,8.38
2017-12-17T16:43:53.116Z,8.30
2017-12-17T16:45:31.698Z,8.26
2017-12-17T16:47:13.110Z,8.27
2017-12-17T16:48:51.589Z,8.11
2017-12-17T16:50:30.127Z,8.03
2017-12-17T16:52:21.559Z,8.17
2017-12-17T16:54:00.615Z,8.17
2017-12-17T16:55:41.570Z,8.22
2017-12-17T16:57:21.933Z,8.21
2017-12-17T16:59:02.998Z,8.22
2017-12-17T17:00:44.574Z,8.01
2017-12-17T17:02:23.894Z,8.18
2017-12-17T17:04:05.048Z,8.27
2017-12-17T17:05:46.418Z,8.39
2017-12-17T17:07:30.490Z,8.20
2017-12-17T17:09:10.430Z,8.21
2017-12-17T17:10:49.217Z,8.28
2017-12-17T17:12:27.571Z,8.29
2017-12-17T17:14:08.614Z,8.25
2017-12-17T17:15:48.787Z,8.22
2017-12-17T17:17:28.077Z,7.99
2017-12-17T17:19:08.301Z,8.02
2017-12-17T17:20:47.352Z,7.99
2017-12-17T17:22:30.595Z,7.88
2017-12-17T17:24:13.453Z,8.02
2017-12-17T17:25:52.352Z,8.02
2017-12-17T17:27:31.410Z,7.99
2017-12-17T17:29:09.676Z,7.79
2017-12-17T17:30:49.715Z,7.90
2017-12-17T17:32:29.076Z,8.03
2017-12-17T17:34:10.095Z,8.10
2017-12-17T17:35:50.285Z,8.07
2017-12-17T17:37:28.262Z,8.21
2017-12-17T17:39:18.713Z,8.22
2017-12-17T17:41:02.123Z,8.20
2017-12-17T17:42:47.590Z,8.25
2017-12-17T17:44:28.278Z,8.18
2017-12-17T17:46:08.591Z,8.16
2017-12-17T17:47:47.637Z,8.23
2017-12-17T17:49:29.103Z,8.14
2017-12-17T17:51:18.338Z,8.10
2017-12-17T17:53:01.377Z,8.10
2017-12-17T17:54:39.879Z,7.98
2017-12-17T17:56:20.512Z,7.71
2017-12-17T17:58:01.737Z,7.67
2017-12-17T17:59:45.179Z,7.90
2017-12-17T18:01:33.957Z,7.96
2017-12-17T18:03:18.518Z,7.86
2017-12-17T18:05:03.317Z,7.56
2017-12-17T18:06:47.169Z,7.75
2017-12-17T18:08:33.427Z,7.89
2017-12-17T18:10:15.301Z,7.96
2017-12-17T18:11:56.538Z,7.84
2017-12-17T18:13:40.322Z,8.01
2017-12-17T18:15:33.934Z,7.98
2017-12-17T18:19:31.660Z,8.17
2017-12-17T18:21:18.236Z,8.04
2017-12-17T18:23:02.064Z,8.07
2017-12-17T18:24:45.487Z,7.97
2017-12-17T18:26:28.201Z,7.86
2017-12-17T18:28:09.961Z,7.91
2017-12-17T18:29:52.509Z,7.92
2017-12-17T18:31:38.662Z,7.97
2017-12-17T18:33:23.120Z,8.14
2017-12-17T18:35:20.909Z,8.24
2017-12-17T18:37:08.216Z,8.19
2017-12-17T18:38:52.040Z,8.00
2017-12-17T18:40:45.864Z,8.11
2017-12-17T18:42:36.799Z,8.27
2017-12-17T18:44:21.653Z,8.36
2017-12-17T18:46:08.855Z,8.36
2017-12-17T18:47:58.838Z,8.40
2017-12-17T18:51:35.774Z,8.07
2017-12-17T18:53:18.370Z,7.77
2017-12-17T18:55:03.294Z,7.93
2017-12-17T18:56:52.872Z,7.90
2017-12-17T18:58:39.748Z,7.61
2017-12-17T19:00:33.486Z,7.65
2017-12-17T19:02:16.566Z,7.96
2017-12-17T19:03:56.290Z,7.96
2017-12-17T19:05:39.602Z,8.16
2017-12-17T19:07:21.747Z,8.21
2017-12-17T19:09:12.253Z,8.04
2017-12-17T19:10:57.819Z,8.05
2017-12-17T19:12:41.299Z,8.06
2017-12-17T19:14:26.988Z,8.17
2017-12-17T19:16:17.032Z,8.17
2017-12-17T19:17:58.755Z,8.02
2017-12-17T19:19:45.245Z,8.01
2017-12-17T19:21:30.615Z,8.04
2017-12-17T19:23:13.175Z,7.98
2017-12-17T19:24:55.075Z,8.02
2017-12-17T19:26:47.857Z,7.98
2017-12-17T19:28:28.448Z,7.90
2017-12-17T19:32:00.163Z,7.76
2017-12-17T19:33:42.671Z,7.68
2017-12-17T19:35:24.143Z,7.68
2017-12-17T19:37:08.090Z,7.62
2017-12-17T19:38:48.803Z,7.53
2017-12-17T19:40:33.349Z,7.32
2017-12-17T19:42:16.397Z,7.42
2017-12-17T19:43:58.571Z,7.63
2017-12-17T19:45:51.437Z,7.82
2017-12-17T19:47:33.250Z,7.91
2017-12-17T19:49:20.943Z,7.82
2017-12-17T19:51:06.905Z,7.68
2017-12-17T19:52:51.897Z,7.65
2017-12-17T19:54:39.420Z,7.59
2017-12-17T19:56:21.433Z,7.51
2017-12-17T19:58:03.868Z,7.40
2017-12-17T19:59:45.539Z,7.42
2017-12-17T20:01:29.200Z,7.56
2017-12-17T20:03:09.280Z,7.62
2017-12-17T20:04:55.890Z,7.41
2017-12-17T20:06:41.836Z,7.21
2017-12-17T20:08:23.854Z,7.30
2017-12-17T20:10:06.797Z,7.50
2017-12-17T20:11:48.916Z,7.59
2017-12-17T20:13:29.473Z,7.69
2017-12-17T20:15:16.171Z,7.60
2017-12-17T20:17:05.008Z,7.54
2017-12-17T20:18:55.534Z,7.50
2017-12-17T20:20:43.195Z,7.54
2017-12-17T20:22:32.300Z,7.45
2017-12-17T20:26:05.046Z,7.45
2017-12-17T20:27:44.139Z,7.49
2017-12-17T20:29:27.395Z,7.47
2017-12-17T20:31:17.686Z,7.44
2017-12-17T20:33:02.166Z,7.34
2017-12-17T20:34:44.031Z,7.27
2017-12-17T20:36:25.987Z,6.96
2017-12-17T20:38:07.979Z,7.03
2017-12-17T20:39:52.872Z,7.09
2017-12-17T20:41:42.121Z,7.17
2017-12-17T20:43:25.796Z,7.18
2017-12-17T20:45:09.221Z,7.25
2017-12-17T20:46:54.814Z,7.30
2017-12-17T20:48:39.526Z,7.27
2017-12-17T20:50:30.224Z,7.20
2017-12-17T20:52:18.194Z,7.36
2017-12-17T20:54:01.568Z,7.53
2017-12-17T20:55:47.083Z,7.69
2017-12-17T20:57:33.663Z,7.77
2017-12-17T20:59:16.597Z,7.77
2017-12-17T21:00:59.134Z,7.48
2017-12-17T21:02:45.085Z,7.71
2017-12-17T21:04:25.350Z,7.72
2017-12-17T21:06:08.598Z,7.64
2017-12-17T21:07:55.488Z,7.58
2017-12-17T21:09:37.181Z,7.60
2017-12-17T21:11:17.483Z,7.41
2017-12-17T21:13:01.160Z,7.48
2017-12-17T21:14:41.477Z,7.50
2017-12-17T21:16:22.825Z,7.50
2017-12-17T21:18:04.298Z,7.41
2017-12-17T21:19:44.823Z,7.28
2017-12-17T21:21:27.165Z,7.29
2017-12-17T21:23:07.134Z,7.22
2017-12-17T21:24:47.521Z,7.21
2017-12-17T21:26:28.543Z,7.09
2017-12-17T21:28:08.254Z,7.10
2017-12-17T21:29:46.273Z,7.14
2017-12-17T21:31:25.490Z,7.00
2017-12-17T21:33:03.198Z,6.87
2017-12-17T21:34:43.618Z,6.81
2017-12-17T21:36:23.616Z,6.85
2017-12-17T21:38:04.259Z,6.94
2017-12-17T21:39:42.528Z,7.00
2017-12-17T21:41:24.917Z,6.96
2017-12-17T21:43:04.388Z,6.98
2017-12-17T21:44:42.683Z,7.03
2017-12-17T21:46:27.864Z,7.03
2017-12-17T21:48:09.068Z,7.06
2017-12-17T21:49:50.640Z,7.03
2017-12-17T21:51:31.506Z,7.03
2017-12-17T21:53:11.532Z,7.11
2017-12-17T21:54:52.530Z,7.19
2017-12-17T21:56:35.049Z,7.11
2017-12-17T21:58:15.097Z,7.06
2017-12-17T21:59:56.592Z,7.08
2017-12-17T22:01:36.549Z,6.99
2017-12-17T22:03:16.408Z,6.95
2017-12-17T22:07:38.246Z,7.23
2017-12-17T22:09:17.743Z,7.27
2017-12-17T22:10:55.216Z,7.31
2017-12-17T22:12:32.974Z,7.29
2017-12-17T22:14:10.838Z,7.29
2017-12-17T22:15:49.553Z,7.23
2017-12-17T22:17:27.183Z,7.24
2017-12-17T22:19:04.021Z,7.22
2017-12-17T22:20:41.071Z,7.17
2017-12-17T22:22:17.800Z,7.22
2017-12-17T22:23:54.346Z,7.16